Time;durP1;ratioP1;P1;durP2;ratioP2;P2;SDS_P1;SDS_P2;PMS_P1;PMS_P2;Temp;Humidity;BMP_temperature;BMP_pressure;BME280_temperature;BME280_humidity;BME280_pressure;Samples;Min_cycle;Max_cycle;Signal;HPM_P1;HPM_P2
2023/05/12 00:01:14;;;;;;;;;;;14.10;99.90;;;;;;8388077;28;19933;-77
2023/05/12 00:05:15;;;;;;;;;;;14.10;99.90;;;;;;8361389;28;20380;-77
2023/05/12 00:09:17;;;;;;;;;;;14.10;99.90;;;;;;8390436;28;19939;-77
2023/05/12 00:13:22;;;;;;;;;;;14.00;99.90;;;;;;8386063;28;19939;-77
2023/05/12 00:17:25;;;;;;;;;;;14.00;99.90;;;;;;8387304;28;19939;-77
2023/05/12 00:21:27;;;;;;;;;;;13.90;99.90;;;;;;8390210;28;19983;-77
2023/05/12 00:25:28;;;;;;;;;;;13.90;99.90;;;;;;8384888;28;19931;-77
2023/05/12 00:29:31;;;;;;;;;;;13.80;99.90;;;;;;8366347;28;19928;-77
2023/05/12 00:33:33;;;;;;;;;;;13.80;99.90;;;;;;8384424;28;20059;-78
2023/05/12 00:37:34;;;;;;;;;;;13.80;99.90;;;;;;8370819;28;20371;-77
2023/05/12 00:41:36;;;;;;;;;;;13.80;99.90;;;;;;8387980;28;19978;-78
2023/05/12 00:45:38;;;;;;;;;;;13.70;99.90;;;;;;8390725;28;19943;-78
2023/05/12 00:49:42;;;;;;;;;;;13.70;99.90;;;;;;8387656;28;19932;-78
2023/05/12 00:53:44;;;;;;;;;;;13.70;99.90;;;;;;8370790;28;19986;-78
2023/05/12 00:57:50;;;;;;;;;;;13.70;99.90;;;;;;8388684;28;20028;-78
2023/05/12 01:01:52;;;;;;;;;;;13.70;99.90;;;;;;8392665;28;20357;-78
2023/05/12 01:06:06;;;;;;;;;;;13.70;99.90;;;;;;8381355;28;19928;-78
2023/05/12 01:10:18;;;;;;;;;;;13.70;99.90;;;;;;8389253;28;19971;-78
2023/05/12 01:14:19;;;;;;;;;;;13.70;99.90;;;;;;8383327;28;19959;-77
2023/05/12 01:18:22;;;;;;;;;;;13.70;99.90;;;;;;8367696;28;20372;-77
2023/05/12 01:22:24;;;;;;;;;;;13.70;99.90;;;;;;8385353;28;20011;-77
2023/05/12 01:26:28;;;;;;;;;;;13.70;99.90;;;;;;8377625;28;20007;-77
2023/05/12 01:30:30;;;;;;;;;;;13.70;99.90;;;;;;8398454;28;19925;-77
2023/05/12 01:34:32;;;;;;;;;;;13.60;99.90;;;;;;8372240;28;19924;-77
2023/05/12 01:38:34;;;;;;;;;;;13.60;99.90;;;;;;8376468;28;19969;-77
2023/05/12 01:42:37;;;;;;;;;;;13.70;99.90;;;;;;8403334;28;20342;-77
2023/05/12 01:46:39;;;;;;;;;;;13.60;99.90;;;;;;8387299;28;19924;-77
2023/05/12 01:50:41;;;;;;;;;;;13.60;99.90;;;;;;8380261;28;20306;-77
2023/05/12 01:54:43;;;;;;;;;;;13.60;99.90;;;;;;8383538;28;19978;-77
2023/05/12 01:58:44;;;;;;;;;;;13.60;99.90;;;;;;8376946;28;19928;-77
2023/05/12 02:02:46;;;;;;;;;;;13.50;99.90;;;;;;8376410;28;20303;-77
2023/05/12 02:06:48;;;;;;;;;;;13.50;99.90;;;;;;8387629;28;19940;-77
2023/05/12 02:10:50;;;;;;;;;;;13.50;99.90;;;;;;8371540;28;20269;-77
2023/05/12 02:14:51;;;;;;;;;;;13.50;99.90;;;;;;8366410;28;20289;-77
2023/05/12 02:18:53;;;;;;;;;;;13.50;99.90;;;;;;8376030;28;20372;-76
2023/05/12 02:22:55;;;;;;;;;;;13.50;99.90;;;;;;8383303;28;19936;-77
2023/05/12 02:37:03;;;;;;;;;;;13.50;99.90;;;;;;8379467;28;20075;-77
2023/05/12 02:41:05;;;;;;;;;;;13.50;99.90;;;;;;8396655;28;19942;-77
2023/05/12 02:45:07;;;;;;;;;;;13.50;99.90;;;;;;8372019;28;19955;-77
2023/05/12 02:49:09;;;;;;;;;;;13.50;99.90;;;;;;8392360;28;19932;-77
2023/05/12 02:53:11;;;;;;;;;;;13.50;99.90;;;;;;8372187;28;19925;-77
2023/05/12 02:57:12;;;;;;;;;;;13.50;99.90;;;;;;8370837;28;19982;-77
2023/05/12 03:01:14;;;;;;;;;;;13.50;99.90;;;;;;8372649;28;20454;-76
2023/05/12 03:05:15;;;;;;;;;;;13.50;99.90;;;;;;8389986;28;19929;-77
2023/05/12 03:09:17;;;;;;;;;;;13.40;99.90;;;;;;8378371;28;19925;-76
2023/05/12 03:13:19;;;;;;;;;;;13.40;99.90;;;;;;8390944;28;20371;-77
2023/05/12 03:17:20;;;;;;;;;;;13.40;99.90;;;;;;8384736;28;19982;-76
2023/05/12 03:21:22;;;;;;;;;;;13.40;99.90;;;;;;8401485;28;19931;-77
2023/05/12 03:25:24;;;;;;;;;;;13.40;99.90;;;;;;8404222;28;20295;-76
2023/05/12 03:29:25;;;;;;;;;;;13.40;99.90;;;;;;8386422;28;20079;-76
2023/05/12 03:33:28;;;;;;;;;;;13.40;99.90;;;;;;8384255;28;20023;-77
2023/05/12 03:37:30;;;;;;;;;;;13.30;99.90;;;;;;8400531;28;20383;-76
2023/05/12 03:41:31;;;;;;;;;;;13.30;99.90;;;;;;8379985;28;19978;-76
2023/05/12 03:45:33;;;;;;;;;;;13.30;99.90;;;;;;8392885;28;20295;-77
2023/05/12 03:49:34;;;;;;;;;;;13.20;99.90;;;;;;8402600;28;20368;-77
2023/05/12 03:53:36;;;;;;;;;;;13.20;99.90;;;;;;8408123;28;20391;-77
2023/05/12 03:57:38;;;;;;;;;;;13.20;99.90;;;;;;8394457;28;19939;-77
2023/05/12 04:01:39;;;;;;;;;;;13.20;99.90;;;;;;8389976;28;19939;-77
2023/05/12 04:05:41;;;;;;;;;;;13.20;99.90;;;;;;8385411;28;19973;-77
2023/05/12 04:09:43;;;;;;;;;;;13.20;99.90;;;;;;8391529;28;19979;-78
2023/05/12 04:13:44;;;;;;;;;;;13.20;99.90;;;;;;8381640;28;19967;-77
2023/05/12 04:17:46;;;;;;;;;;;13.20;99.90;;;;;;8385183;28;20391;-77
2023/05/12 04:21:48;;;;;;;;;;;13.20;99.90;;;;;;8388714;28;19928;-77
2023/05/12 04:25:49;;;;;;;;;;;13.20;99.90;;;;;;8404518;28;20416;-77
2023/05/12 04:29:51;;;;;;;;;;;13.20;99.90;;;;;;8387570;28;20018;-78
2023/05/12 04:33:54;;;;;;;;;;;13.30;99.90;;;;;;8374814;28;19962;-77
2023/05/12 04:37:56;;;;;;;;;;;13.30;99.90;;;;;;8388263;28;20391;-77
2023/05/12 04:41:59;;;;;;;;;;;13.30;99.90;;;;;;8376739;28;19950;-77
2023/05/12 04:46:01;;;;;;;;;;;13.30;99.90;;;;;;8370014;28;20400;-77
2023/05/12 04:50:05;;;;;;;;;;;13.30;99.90;;;;;;8379091;28;19940;-77
2023/05/12 04:54:08;;;;;;;;;;;13.30;99.90;;;;;;8390695;28;19932;-77
2023/05/12 04:58:13;;;;;;;;;;;13.40;99.90;;;;;;8385138;28;19936;-77
2023/05/12 05:02:14;;;;;;;;;;;13.40;99.90;;;;;;8373999;28;19985;-77
2023/05/12 05:06:16;;;;;;;;;;;13.40;99.90;;;;;;8365006;28;19931;-77
2023/05/12 05:10:18;;;;;;;;;;;13.40;99.90;;;;;;8388266;28;20361;-77
2023/05/12 05:14:19;;;;;;;;;;;13.40;99.90;;;;;;8393398;28;20028;-77
2023/05/12 05:18:21;;;;;;;;;;;13.40;99.90;;;;;;8364957;28;20273;-77
2023/05/12 05:22:25;;;;;;;;;;;13.50;99.90;;;;;;8392239;28;19925;-77
2023/05/12 05:26:26;;;;;;;;;;;13.50;99.90;;;;;;8389423;28;19925;-77
2023/05/12 05:30:28;;;;;;;;;;;13.50;99.90;;;;;;8385145;28;19931;-77
2023/05/12 05:34:29;;;;;;;;;;;13.50;99.90;;;;;;8371050;28;20020;-77
2023/05/12 05:38:31;;;;;;;;;;;13.60;99.90;;;;;;8388806;28;19925;-77
2023/05/12 05:42:33;;;;;;;;;;;13.60;99.90;;;;;;8392691;28;19978;-77
2023/05/12 05:46:34;;;;;;;;;;;13.60;99.90;;;;;;8379718;28;20370;-77
2023/05/12 05:50:36;;;;;;;;;;;13.70;99.90;;;;;;8380439;28;19936;-77
2023/05/12 05:54:39;;;;;;;;;;;13.70;99.90;;;;;;8368859;28;19928;-77
2023/05/12 05:58:41;;;;;;;;;;;13.80;99.90;;;;;;8389002;28;19925;-77
2023/05/12 06:02:43;;;;;;;;;;;13.80;99.90;;;;;;8387104;28;19924;-77
2023/05/12 06:06:44;;;;;;;;;;;13.90;99.90;;;;;;8379578;28;20380;-78
2023/05/12 06:10:46;;;;;;;;;;;13.90;99.90;;;;;;8379399;28;19924;-77
2023/05/12 06:14:48;;;;;;;;;;;14.00;99.90;;;;;;8382398;28;19931;-78
2023/05/12 06:18:49;;;;;;;;;;;14.00;99.90;;;;;;8373777;28;19928;-77
2023/05/12 06:22:51;;;;;;;;;;;14.00;99.90;;;;;;8385870;28;19929;-77
2023/05/12 06:26:53;;;;;;;;;;;14.00;99.90;;;;;;8372313;28;19931;-78
2023/05/12 06:30:54;;;;;;;;;;;14.10;99.90;;;;;;8388556;28;19924;-77
2023/05/12 06:34:56;;;;;;;;;;;14.10;99.90;;;;;;8386683;28;19932;-77
2023/05/12 06:38:58;;;;;;;;;;;14.20;99.90;;;;;;8394547;28;19930;-78
2023/05/12 06:42:59;;;;;;;;;;;14.30;99.90;;;;;;8389621;28;19925;-77
2023/05/12 06:47:01;;;;;;;;;;;14.30;99.90;;;;;;8400503;28;20003;-77
2023/05/12 06:51:03;;;;;;;;;;;14.40;99.90;;;;;;8371978;28;19928;-78
2023/05/12 06:55:05;;;;;;;;;;;14.50;99.90;;;;;;8389720;28;21004;-78
2023/05/12 06:59:07;;;;;;;;;;;14.60;99.90;;;;;;8389060;28;19975;-78
2023/05/12 07:03:09;;;;;;;;;;;14.70;99.90;;;;;;8385815;28;20023;-78
2023/05/12 07:07:11;;;;;;;;;;;14.80;99.90;;;;;;8381951;28;19924;-78
2023/05/12 07:11:18;;;;;;;;;;;14.90;99.90;;;;;;8389056;28;19955;-78
2023/05/12 07:15:20;;;;;;;;;;;15.00;99.90;;;;;;8390047;28;19935;-78
2023/05/12 07:19:22;;;;;;;;;;;15.00;99.90;;;;;;8383837;28;20384;-78
2023/05/12 07:23:23;;;;;;;;;;;15.10;99.90;;;;;;8385614;28;20396;-78
2023/05/12 07:27:25;;;;;;;;;;;15.10;99.90;;;;;;8369922;28;20015;-78
2023/05/12 07:31:27;;;;;;;;;;;15.20;99.90;;;;;;8384520;28;19931;-78
2023/05/12 07:35:29;;;;;;;;;;;15.30;99.90;;;;;;8385296;28;19924;-78
2023/05/12 07:39:31;;;;;;;;;;;15.40;99.90;;;;;;8378194;28;19924;-78
2023/05/12 07:43:33;;;;;;;;;;;15.50;99.90;;;;;;8383393;28;19928;-77
2023/05/12 07:47:34;;;;;;;;;;;15.60;99.90;;;;;;8380679;28;19935;-78
2023/05/12 07:51:36;;;;;;;;;;;15.80;99.90;;;;;;8363993;28;20393;-77
2023/05/12 07:55:38;;;;;;;;;;;15.90;99.90;;;;;;8391004;28;19931;-78
2023/05/12 07:59:40;;;;;;;;;;;16.20;99.90;;;;;;8393612;28;20378;-77
2023/05/12 08:03:41;;;;;;;;;;;16.40;99.90;;;;;;8386085;28;19924;-79
2023/05/12 08:07:43;;;;;;;;;;;16.50;99.90;;;;;;8364250;28;20440;-77
2023/05/12 08:11:45;;;;;;;;;;;16.70;99.90;;;;;;8398771;28;19972;-77
2023/05/12 08:15:48;;;;;;;;;;;16.80;99.90;;;;;;8375565;28;19925;-77
2023/05/12 08:19:50;;;;;;;;;;;16.90;99.90;;;;;;8392761;28;20462;-77
2023/05/12 08:23:52;;;;;;;;;;;17.00;99.90;;;;;;8382666;28;19925;-78
2023/05/12 08:27:53;;;;;;;;;;;17.10;99.90;;;;;;8391070;28;19935;-77
2023/05/12 08:31:56;;;;;;;;;;;17.20;99.90;;;;;;8394083;28;19928;-78
2023/05/12 08:35:57;;;;;;;;;;;17.30;99.90;;;;;;8393515;28;19924;-77
2023/05/12 08:39:59;;;;;;;;;;;17.40;99.90;;;;;;8388511;28;19935;-77
2023/05/12 08:44:01;;;;;;;;;;;17.50;99.90;;;;;;8392099;28;19924;-77
2023/05/12 08:48:04;;;;;;;;;;;17.70;99.90;;;;;;8390130;28;19970;-78
2023/05/12 08:52:06;;;;;;;;;;;17.80;99.90;;;;;;8374918;28;19949;-77
2023/05/12 08:56:09;;;;;;;;;;;17.80;99.90;;;;;;8389224;28;19967;-78
2023/05/12 09:00:15;;;;;;;;;;;17.90;99.90;;;;;;8392032;28;19933;-77
2023/05/12 09:04:16;;;;;;;;;;;18.00;99.90;;;;;;8394109;28;19990;-77
2023/05/12 09:08:18;;;;;;;;;;;18.20;99.90;;;;;;8376221;28;19924;-78
2023/05/12 09:12:20;;;;;;;;;;;18.30;99.90;;;;;;8370240;28;22620;-77
2023/05/12 09:16:23;;;;;;;;;;;18.50;99.90;;;;;;8365961;28;20027;-77
2023/05/12 09:20:25;;;;;;;;;;;18.60;99.90;;;;;;8366038;28;20007;-78
2023/05/12 09:24:33;;;;;;;;;;;18.70;99.90;;;;;;8353162;28;19925;-77
2023/05/12 09:28:35;;;;;;;;;;;18.90;99.90;;;;;;8368554;28;19931;-77
2023/05/12 09:32:37;;;;;;;;;;;19.00;99.90;;;;;;8373881;28;19977;-77
2023/05/12 09:36:38;;;;;;;;;;;19.10;99.90;;;;;;8363169;28;19941;-77
2023/05/12 09:40:41;;;;;;;;;;;19.10;99.90;;;;;;8350088;28;20683;-77
2023/05/12 09:44:45;;;;;;;;;;;19.10;99.90;;;;;;8369659;28;19929;-77
2023/05/12 09:48:47;;;;;;;;;;;19.20;99.90;;;;;;8364099;28;19933;-77
2023/05/12 09:52:49;;;;;;;;;;;19.20;99.90;;;;;;8364299;28;19933;-77
2023/05/12 09:56:51;;;;;;;;;;;19.20;99.90;;;;;;8341053;28;19985;-79
2023/05/12 10:00:54;;;;;;;;;;;19.20;99.90;;;;;;8343576;28;19932;-77
2023/05/12 10:05:01;;;;;;;;;;;19.20;99.90;;;;;;8345917;28;20031;-77
2023/05/12 10:09:03;;;;;;;;;;;19.40;99.90;;;;;;8359262;28;19940;-78
2023/05/12 10:13:05;;;;;;;;;;;19.60;99.90;;;;;;8369272;28;19932;-78
2023/05/12 10:17:08;;;;;;;;;;;19.70;99.90;;;;;;8373287;28;20314;-78
2023/05/12 10:21:11;;;;;;;;;;;19.80;99.90;;;;;;8366514;28;19961;-78
2023/05/12 10:25:13;;;;;;;;;;;19.90;99.90;;;;;;8367662;28;19929;-78
2023/05/12 10:29:14;;;;;;;;;;;20.00;99.90;;;;;;8357764;28;19946;-78
2023/05/12 10:33:16;;;;;;;;;;;20.10;99.90;;;;;;8347157;28;20307;-78
2023/05/12 10:37:18;;;;;;;;;;;20.20;99.90;;;;;;8348110;28;20214;-77
2023/05/12 10:41:30;;;;;;;;;;;20.30;99.90;;;;;;8351817;28;19933;-78
2023/05/12 10:45:35;;;;;;;;;;;20.40;99.90;;;;;;8352106;28;19925;-77
2023/05/12 10:49:41;;;;;;;;;;;20.40;99.90;;;;;;8358592;28;19971;-78
2023/05/12 10:53:43;;;;;;;;;;;20.40;99.90;;;;;;8365592;28;20360;-78
2023/05/12 10:57:51;;;;;;;;;;;20.30;99.90;;;;;;8348006;28;19956;-76
2023/05/12 11:01:57;;;;;;;;;;;20.30;99.90;;;;;;8364928;28;19928;-75
2023/05/12 11:06:01;;;;;;;;;;;20.30;99.90;;;;;;8364650;28;20490;-76
2023/05/12 11:10:04;;;;;;;;;;;20.20;99.90;;;;;;8354567;28;20264;-75
2023/05/12 11:14:07;;;;;;;;;;;20.30;99.90;;;;;;8370342;28;19944;-75
2023/05/12 11:18:08;;;;;;;;;;;20.40;99.90;;;;;;8353197;28;19952;-75
2023/05/12 11:22:11;;;;;;;;;;;20.50;99.90;;;;;;8358610;28;19929;-76
2023/05/12 11:26:17;;;;;;;;;;;20.80;99.90;;;;;;8347326;28;20372;-76
2023/05/12 11:30:19;;;;;;;;;;;21.00;99.90;;;;;;8368432;28;20023;-75
2023/05/12 11:34:24;;;;;;;;;;;21.20;99.90;;;;;;8370985;28;19985;-75
2023/05/12 11:38:27;;;;;;;;;;;21.30;99.90;;;;;;8371100;28;19928;-75
2023/05/12 11:42:28;;;;;;;;;;;21.50;99.90;;;;;;8374321;28;19990;-77
2023/05/12 11:46:30;;;;;;;;;;;21.50;99.90;;;;;;8356769;28;20390;-77
2023/05/12 11:50:32;;;;;;;;;;;21.70;99.90;;;;;;8371213;28;19971;-75
2023/05/12 11:54:34;;;;;;;;;;;21.70;99.90;;;;;;8378246;28;19938;-75
2023/05/12 11:58:35;;;;;;;;;;;21.70;99.90;;;;;;8354074;28;19935;-76
2023/05/12 12:02:38;;;;;;;;;;;21.70;99.90;;;;;;8355814;28;19932;-76
2023/05/12 12:06:44;;;;;;;;;;;21.60;99.90;;;;;;8373124;28;19928;-76
2023/05/12 12:10:45;;;;;;;;;;;21.50;99.90;;;;;;8345647;28;20015;-76
2023/05/12 12:14:47;;;;;;;;;;;21.60;99.90;;;;;;8364239;28;20284;-75
2023/05/12 12:18:49;;;;;;;;;;;21.70;99.90;;;;;;8370373;28;19932;-76
2023/05/12 12:22:52;;;;;;;;;;;21.80;99.90;;;;;;8369897;28;19928;-75
2023/05/12 12:26:53;;;;;;;;;;;21.90;99.90;;;;;;8368213;28;19929;-76
2023/05/12 12:30:55;;;;;;;;;;;21.90;99.90;;;;;;8356224;28;19931;-76
2023/05/12 12:35:02;;;;;;;;;;;22.10;99.90;;;;;;8366184;28;19967;-75
2023/05/12 12:39:04;;;;;;;;;;;22.30;99.90;;;;;;8348186;28;19933;-76
2023/05/12 12:43:05;;;;;;;;;;;22.50;99.90;;;;;;8375243;28;19935;-75
2023/05/12 12:47:07;;;;;;;;;;;22.60;99.90;;;;;;8367199;28;19928;-75
2023/05/12 12:51:09;;;;;;;;;;;22.60;99.90;;;;;;8368432;28;19925;-76
2023/05/12 12:55:10;;;;;;;;;;;22.50;99.90;;;;;;8367066;28;19924;-76
2023/05/12 12:59:12;;;;;;;;;;;22.40;99.90;;;;;;8368663;28;20381;-75
2023/05/12 13:03:14;;;;;;;;;;;22.30;99.90;;;;;;8393109;28;19964;-76
2023/05/12 13:07:16;;;;;;;;;;;22.30;99.90;;;;;;8364228;28;19980;-77
2023/05/12 13:11:18;;;;;;;;;;;22.40;99.90;;;;;;8362349;28;19925;-76
2023/05/12 13:15:19;;;;;;;;;;;22.40;99.90;;;;;;8372087;28;19929;-76
2023/05/12 13:19:21;;;;;;;;;;;22.40;99.90;;;;;;8357901;28;19932;-76
2023/05/12 13:23:23;;;;;;;;;;;22.40;99.90;;;;;;8369908;28;19959;-76
2023/05/12 13:27:24;;;;;;;;;;;22.40;99.90;;;;;;8355040;28;20031;-76
2023/05/12 13:31:26;;;;;;;;;;;22.50;99.90;;;;;;8369163;28;19962;-76
2023/05/12 13:35:28;;;;;;;;;;;22.60;99.90;;;;;;8355980;28;19965;-76
2023/05/12 13:39:30;;;;;;;;;;;22.80;99.90;;;;;;8364562;28;19936;-77
2023/05/12 13:43:32;;;;;;;;;;;23.00;99.90;;;;;;8369088;28;20387;-77
2023/05/12 13:47:34;;;;;;;;;;;23.10;99.90;;;;;;8361906;28;20016;-77
2023/05/12 13:51:35;;;;;;;;;;;23.30;99.90;;;;;;8368474;28;19930;-76
2023/05/12 13:55:38;;;;;;;;;;;23.50;99.90;;;;;;8363165;28;20307;-76
2023/05/12 13:59:41;;;;;;;;;;;23.60;99.90;;;;;;8352230;28;19924;-75
2023/05/12 14:03:42;;;;;;;;;;;23.60;99.90;;;;;;8363166;28;20018;-76
2023/05/12 14:07:44;;;;;;;;;;;23.60;99.90;;;;;;8353621;28;19964;-76
2023/05/12 14:11:46;;;;;;;;;;;23.80;99.90;;;;;;8354588;28;20306;-76
2023/05/12 14:15:47;;;;;;;;;;;23.90;99.90;;;;;;8363759;28;19932;-76
2023/05/12 14:19:50;;;;;;;;;;;24.00;99.90;;;;;;8363810;28;19990;-76
2023/05/12 14:23:52;;;;;;;;;;;24.10;99.90;;;;;;8359796;28;20431;-76
2023/05/12 14:27:54;;;;;;;;;;;24.10;99.90;;;;;;8360661;28;20035;-76
2023/05/12 14:31:56;;;;;;;;;;;24.00;99.90;;;;;;8372832;28;19932;-76
2023/05/12 14:35:57;;;;;;;;;;;23.80;99.90;;;;;;8353453;28;19924;-75
2023/05/12 14:40:07;;;;;;;;;;;23.90;99.90;;;;;;8369501;28;19936;-76
2023/05/12 14:44:10;;;;;;;;;;;24.20;99.90;;;;;;8365740;28;19928;-76
2023/05/12 14:48:12;;;;;;;;;;;24.40;99.90;;;;;;8362327;28;20376;-76
2023/05/12 14:52:13;;;;;;;;;;;24.60;99.90;;;;;;8360297;28;19976;-76
2023/05/12 14:56:15;;;;;;;;;;;24.80;99.90;;;;;;8344628;28;19975;-76
2023/05/12 15:00:17;;;;;;;;;;;24.80;99.90;;;;;;8352972;28;19971;-76
2023/05/12 15:04:18;;;;;;;;;;;24.70;99.90;;;;;;8373483;28;19925;-76
2023/05/12 15:08:23;;;;;;;;;;;24.40;99.90;;;;;;8364957;28;20296;-75
2023/05/12 15:12:25;;;;;;;;;;;24.40;99.90;;;;;;8348316;28;19928;-75
2023/05/12 15:16:27;;;;;;;;;;;24.60;99.90;;;;;;8358681;28;19933;-75
2023/05/12 15:20:28;;;;;;;;;;;24.70;99.90;;;;;;8368829;28;19929;-75
2023/05/12 15:24:30;;;;;;;;;;;24.80;99.90;;;;;;8369716;28;20361;-76
2023/05/12 15:28:32;;;;;;;;;;;24.90;99.90;;;;;;8358071;28;19925;-75
2023/05/12 15:32:33;;;;;;;;;;;24.90;99.90;;;;;;8362101;28;19931;-77
2023/05/12 15:36:35;;;;;;;;;;;25.00;99.90;;;;;;8361977;28;19924;-75
2023/05/12 15:40:36;;;;;;;;;;;25.00;99.90;;;;;;8356356;28;20028;-75
2023/05/12 15:44:38;;;;;;;;;;;25.30;99.90;;;;;;8362464;28;19929;-75
2023/05/12 15:48:40;;;;;;;;;;;25.70;99.90;;;;;;8364445;28;19947;-75
2023/05/12 15:52:41;;;;;;;;;;;26.20;99.90;;;;;;8354479;28;19925;-76
2023/05/12 15:56:43;;;;;;;;;;;26.50;99.90;;;;;;8369840;28;19924;-75
2023/05/12 16:00:45;;;;;;;;;;;27.20;99.90;;;;;;8349430;28;19979;-75
2023/05/12 16:04:47;;;;;;;;;;;27.90;99.90;;;;;;8345189;28;20457;-76
2023/05/12 16:08:49;;;;;;;;;;;28.60;99.90;;;;;;8345955;28;20536;-76
2023/05/12 16:12:50;;;;;;;;;;;29.00;99.90;;;;;;8365456;28;19944;-76
2023/05/12 16:16:52;;;;;;;;;;;28.60;99.90;;;;;;8374451;28;20023;-77
2023/05/12 16:20:54;;;;;;;;;;;27.60;99.90;;;;;;8372353;28;20014;-76
2023/05/12 16:24:56;;;;;;;;;;;26.50;99.90;;;;;;8375081;28;19928;-75
2023/05/12 16:28:58;;;;;;;;;;;25.60;99.90;;;;;;8373770;28;19931;-76
2023/05/12 16:32:59;;;;;;;;;;;24.80;99.90;;;;;;8368112;28;20032;-75
2023/05/12 16:37:01;;;;;;;;;;;24.20;99.90;;;;;;8367028;28;19925;-76
2023/05/12 16:41:02;;;;;;;;;;;23.60;99.90;;;;;;8369452;28;19959;-76
2023/05/12 16:45:05;;;;;;;;;;;23.20;99.90;;;;;;8358144;28;19931;-76
2023/05/12 16:49:07;;;;;;;;;;;22.80;99.90;;;;;;8370333;28;19932;-76
2023/05/12 16:53:08;;;;;;;;;;;22.50;99.90;;;;;;8372424;28;19979;-76
2023/05/12 16:57:10;;;;;;;;;;;22.30;99.90;;;;;;8368506;28;19932;-76
2023/05/12 17:01:12;;;;;;;;;;;22.10;99.90;;;;;;8351906;28;20014;-76
2023/05/12 17:05:13;;;;;;;;;;;22.00;99.90;;;;;;8356987;28;19982;-76
2023/05/12 17:09:15;;;;;;;;;;;21.90;99.90;;;;;;8359739;28;19990;-76
2023/05/12 17:13:17;;;;;;;;;;;21.90;99.90;;;;;;8390153;28;19939;-76
2023/05/12 17:17:18;;;;;;;;;;;21.80;99.90;;;;;;8359992;28;19932;-76
2023/05/12 17:21:20;;;;;;;;;;;21.80;99.90;;;;;;8379698;28;19968;-76
2023/05/12 17:25:22;;;;;;;;;;;21.80;99.90;;;;;;8380878;28;20274;-76
2023/05/12 17:29:24;;;;;;;;;;;21.80;99.90;;;;;;8349536;28;19982;-76
2023/05/12 17:33:25;;;;;;;;;;;21.80;99.90;;;;;;8369587;28;20413;-76
2023/05/12 17:37:28;;;;;;;;;;;21.80;99.90;;;;;;8356621;28;19955;-76
2023/05/12 17:41:30;;;;;;;;;;;21.70;99.90;;;;;;8360615;28;19932;-76
2023/05/12 17:45:32;;;;;;;;;;;21.70;99.90;;;;;;8359129;28;19937;-76
2023/05/12 17:49:34;;;;;;;;;;;21.60;99.90;;;;;;8358784;28;19963;-76
2023/05/12 17:53:35;;;;;;;;;;;21.50;99.90;;;;;;8366646;28;21508;-75
2023/05/12 17:57:37;;;;;;;;;;;21.40;99.90;;;;;;8365778;28;20379;-76
2023/05/12 18:01:39;;;;;;;;;;;21.30;99.90;;;;;;8353063;28;20362;-76
2023/05/12 18:05:41;;;;;;;;;;;21.20;99.90;;;;;;8362614;28;19928;-76
2023/05/12 18:09:42;;;;;;;;;;;21.10;99.90;;;;;;8362923;28;20381;-76
2023/05/12 18:13:44;;;;;;;;;;;21.10;99.90;;;;;;8366801;28;20023;-76
2023/05/12 18:17:45;;;;;;;;;;;21.10;99.90;;;;;;8362730;28;19932;-76
2023/05/12 18:21:49;;;;;;;;;;;21.10;99.90;;;;;;8374226;28;19931;-75
2023/05/12 18:25:51;;;;;;;;;;;21.10;99.90;;;;;;8384915;28;19929;-75
2023/05/12 18:29:52;;;;;;;;;;;21.10;99.90;;;;;;8366151;28;19955;-76
2023/05/12 18:33:54;;;;;;;;;;;21.20;99.90;;;;;;8383117;28;20399;-76
2023/05/12 18:37:56;;;;;;;;;;;21.20;99.90;;;;;;8360143;28;19967;-75
2023/05/12 18:41:58;;;;;;;;;;;21.10;99.90;;;;;;8363712;28;19929;-76
2023/05/12 18:45:59;;;;;;;;;;;21.00;99.90;;;;;;8359996;28;20368;-75
2023/05/12 18:50:02;;;;;;;;;;;20.90;99.90;;;;;;8369167;28;19925;-76
2023/05/12 18:54:04;;;;;;;;;;;20.80;99.90;;;;;;8370897;28;19924;-76
2023/05/12 18:58:06;;;;;;;;;;;20.70;99.90;;;;;;8358380;28;19933;-76
2023/05/12 19:02:07;;;;;;;;;;;20.50;99.90;;;;;;8347309;28;19937;-76
2023/05/12 19:06:09;;;;;;;;;;;20.30;99.90;;;;;;8362076;28;20422;-76
2023/05/12 19:10:11;;;;;;;;;;;20.20;99.90;;;;;;8355193;28;19968;-75
2023/05/12 19:14:14;;;;;;;;;;;20.00;99.90;;;;;;8360510;28;20307;-76
2023/05/12 19:18:16;;;;;;;;;;;19.90;99.90;;;;;;8362871;28;19932;-75
2023/05/12 19:22:17;;;;;;;;;;;19.80;99.90;;;;;;8362212;28;19935;-76
2023/05/12 19:26:19;;;;;;;;;;;19.60;99.90;;;;;;8363959;28;20281;-75
2023/05/12 19:30:21;;;;;;;;;;;19.50;99.90;;;;;;8368540;28;19955;-75
2023/05/12 19:34:23;;;;;;;;;;;19.40;99.90;;;;;;8363494;28;19973;-75
2023/05/12 19:38:24;;;;;;;;;;;19.30;99.90;;;;;;8371294;28;20017;-75
2023/05/12 19:42:26;;;;;;;;;;;19.20;99.90;;;;;;8361100;28;19951;-75
2023/05/12 19:46:28;;;;;;;;;;;19.10;99.90;;;;;;8355783;28;19978;-76
2023/05/12 19:50:30;;;;;;;;;;;19.00;99.90;;;;;;8368408;28;20463;-76
2023/05/12 19:54:31;;;;;;;;;;;18.90;99.90;;;;;;8367294;28;19960;-76
2023/05/12 19:58:33;;;;;;;;;;;18.80;99.90;;;;;;8360053;28;20015;-76
2023/05/12 20:02:35;;;;;;;;;;;18.70;99.90;;;;;;8351928;28;19928;-75
2023/05/12 20:06:37;;;;;;;;;;;18.70;99.90;;;;;;8368013;28;20023;-75
2023/05/12 20:10:38;;;;;;;;;;;18.60;99.90;;;;;;8360089;28;20406;-76
2023/05/12 20:14:40;;;;;;;;;;;18.40;99.90;;;;;;8357131;28;19931;-76
2023/05/12 20:18:42;;;;;;;;;;;18.40;99.90;;;;;;8365667;28;19928;-75
2023/05/12 20:22:43;;;;;;;;;;;18.30;99.90;;;;;;8347759;28;20360;-76
2023/05/12 20:26:45;;;;;;;;;;;18.30;99.90;;;;;;8369914;28;20096;-75
2023/05/12 20:30:47;;;;;;;;;;;18.20;99.90;;;;;;8354033;28;20079;-76
2023/05/12 20:34:48;;;;;;;;;;;18.10;99.90;;;;;;8346698;28;19943;-75
2023/05/12 20:38:50;;;;;;;;;;;18.00;99.90;;;;;;8365002;28;20031;-75
2023/05/12 20:42:51;;;;;;;;;;;17.90;99.90;;;;;;8371834;28;20000;-76
2023/05/12 20:46:53;;;;;;;;;;;17.80;99.90;;;;;;8383182;28;20492;-75
2023/05/12 20:50:55;;;;;;;;;;;17.80;99.90;;;;;;8353584;28;19928;-75
2023/05/12 20:55:00;;;;;;;;;;;17.80;99.90;;;;;;8353213;28;19931;-75
2023/05/12 20:59:01;;;;;;;;;;;17.80;99.90;;;;;;8362121;28;20010;-75
2023/05/12 21:03:04;;;;;;;;;;;17.70;99.90;;;;;;8377057;28;19932;-75
2023/05/12 21:07:06;;;;;;;;;;;17.70;99.90;;;;;;8380827;28;19992;-76
2023/05/12 21:11:14;;;;;;;;;;;17.70;99.90;;;;;;8390904;28;19924;-75
2023/05/12 21:15:16;;;;;;;;;;;17.70;99.90;;;;;;8392982;28;19971;-75
2023/05/12 21:19:18;;;;;;;;;;;17.70;99.90;;;;;;8368983;28;20352;-75
2023/05/12 21:23:19;;;;;;;;;;;17.70;99.90;;;;;;8386493;28;20418;-75
2023/05/12 21:27:21;;;;;;;;;;;17.70;99.90;;;;;;8370947;28;19935;-75
2023/05/12 21:31:22;;;;;;;;;;;17.60;99.90;;;;;;8383588;28;20620;-75
2023/05/12 21:35:24;;;;;;;;;;;17.60;99.90;;;;;;8382794;28;19974;-75
2023/05/12 21:39:26;;;;;;;;;;;17.70;99.90;;;;;;8381313;28;20274;-75
2023/05/12 21:43:28;;;;;;;;;;;17.60;99.90;;;;;;8374398;28;19931;-75
2023/05/12 21:47:30;;;;;;;;;;;17.60;99.90;;;;;;8386488;28;19924;-75
2023/05/12 21:51:34;;;;;;;;;;;17.60;99.90;;;;;;8373397;28;19924;-75
2023/05/12 21:55:36;;;;;;;;;;;17.60;99.90;;;;;;8371000;28;19931;-75
2023/05/12 21:59:38;;;;;;;;;;;17.60;99.90;;;;;;8362681;28;19928;-74
2023/05/12 22:03:40;;;;;;;;;;;17.60;99.90;;;;;;8389544;28;19933;-75
2023/05/12 22:07:42;;;;;;;;;;;17.60;99.90;;;;;;8368502;28;20342;-75
2023/05/12 22:11:45;;;;;;;;;;;17.60;99.90;;;;;;8385839;28;21481;-75
2023/05/12 22:15:47;;;;;;;;;;;17.60;99.90;;;;;;8387152;28;19943;-75
2023/05/12 22:19:48;;;;;;;;;;;17.60;99.90;;;;;;8386405;28;19929;-75
2023/05/12 22:23:50;;;;;;;;;;;17.50;99.90;;;;;;8387066;28;19925;-75
2023/05/12 22:27:52;;;;;;;;;;;17.50;99.90;;;;;;8377778;28;20386;-75
2023/05/12 22:31:53;;;;;;;;;;;17.50;99.90;;;;;;8377401;28;20287;-75
2023/05/12 22:35:56;;;;;;;;;;;17.50;99.90;;;;;;8382067;28;20380;-75
2023/05/12 22:39:58;;;;;;;;;;;17.50;99.90;;;;;;8369833;28;19939;-75
2023/05/12 22:44:00;;;;;;;;;;;17.50;99.90;;;;;;8362040;28;19968;-75
2023/05/12 22:48:01;;;;;;;;;;;17.40;99.90;;;;;;8382514;28;19931;-75
2023/05/12 22:52:04;;;;;;;;;;;17.40;99.90;;;;;;8381584;28;19924;-75
2023/05/12 22:56:06;;;;;;;;;;;17.40;99.90;;;;;;8384855;28;19928;-75
2023/05/12 23:00:08;;;;;;;;;;;17.40;99.90;;;;;;8376518;28;19925;-76
2023/05/12 23:04:10;;;;;;;;;;;17.40;99.90;;;;;;8379022;28;19928;-75
2023/05/12 23:08:12;;;;;;;;;;;17.30;99.90;;;;;;8381094;28;19932;-76
2023/05/12 23:12:14;;;;;;;;;;;17.30;99.90;;;;;;8368473;28;19925;-75
2023/05/12 23:16:15;;;;;;;;;;;17.30;99.90;;;;;;8378018;28;19929;-75
2023/05/12 23:20:17;;;;;;;;;;;17.30;99.90;;;;;;8382124;28;20185;-75
2023/05/12 23:24:19;;;;;;;;;;;17.30;99.90;;;;;;8385983;28;19979;-77
2023/05/12 23:28:20;;;;;;;;;;;17.30;99.90;;;;;;8390820;28;19929;-75
2023/05/12 23:32:22;;;;;;;;;;;17.30;99.90;;;;;;8388221;28;19924;-75
2023/05/12 23:36:24;;;;;;;;;;;17.30;99.90;;;;;;8370496;28;19939;-75